Pagrindinis puslapis
METAR-TAF:

METAR-TAF

Oro uostai :

Naujasis Delis, Indija

platuma: 28-34N, ilguma: 077-07E, Aukštis: 220 m

Dabartinis oras

Ataskaita buvo paskelbta 59 minutes, ne 22:00 UTC
Vėjas 3 kt iš Šiaurės/Šiaurės Rytų
Temperatūra 13°C
Drėgmė 94%
Slėgis 1019 hPa
Matomumas: 1800 m
Išsisklaidę debesys ne aukštis 4000 ft
Su prošvaistėmis ne aukštis 10000 ft
rūkana

METAR: VIDP 212200Z 03003KT 1800 R28/P2000 R29/P2000 BR SCT040 BKN100 13/12 Q1019 NOSIG

Laikas: 04:29 (22:59 UTC)

Prognozė

Ataskaita buvo paskelbta 2 valandos ir 59 minutes, ne 20:00 UTC
Prognozė galioja nuo 21 metu 21 UTC su 22 metu 06 UTC
Vėjas 5 kt iš Šiaurės/Šiaurės Rytų
Matomumas: 1500 m
Išsisklaidę debesys ne aukštis 4000 ft
Su prošvaistėmis ne aukštis 10000 ft
rūkana
Tapsmas
nuo 22 metu 00 UTC su 22 metu 02 UTC
Matomumas: 0800 m
Sekli rūkas
Tapsmas
nuo 22 metu 03 UTC su 22 metu 05 UTC
Vėjas 8 kt iš Rytų
Matomumas: 2000 m
dulksna, migla

TAF: VIDP 212000Z 2121/2206 03005KT 1500 BR SCT040 BKN100 BECMG 2200/2202 0800 MIFG BECMG 2203/2205 09008KT 2000 DZ HZ

Orai ataskaitas ir orų prognozės (METAR, TAF).

turimą stotys yra geltonos ir raudonos taškus žemėlapyje.

Perkelti pele per norėdami pamatyti stoties vardą.

Tada spustelėkite, norėdami matyti oro stebėjimo ir prognozės.

Norėdami pakeisti žemėlapį: spustelėkite ant žalios mygtukų su juodo kryžiaus žemyn,; žalią mygtuką su brūkšneliu, jei norite nutolinti; arba žalių rodyklių gretimoms žemėlapius.


METAR-TAF: